Time;durP1;ratioP1;P1;durP2;ratioP2;P2;SDS_P1;SDS_P2;PMS_P1;PMS_P2;Temp;Humidity;BMP_temperature;BMP_pressure;BME280_temperature;BME280_humidity;BME280_pressure;Samples;Min_cycle;Max_cycle;Signal;HPM_P1;HPM_P2
2022/07/06 00:04:38;;;;;;;2.17;0.80;;;;;;;17.82;71.41;100776.84;10468155;28;20056;-83
2022/07/06 00:09:41;;;;;;;1.90;0.70;;;;;;;17.90;71.88;100776.06;10479991;28;20047;-81
2022/07/06 00:14:43;;;;;;;4.28;0.70;;;;;;;17.92;72.09;100777.34;10484731;28;20515;-82
2022/07/06 00:19:46;;;;;;;3.33;1.10;;;;;;;18.00;72.14;100778.50;10492336;28;20041;-84
2022/07/06 00:24:48;;;;;;;1.33;0.75;;;;;;;17.97;72.07;100771.63;10492446;28;20046;-83
2022/07/06 00:29:50;;;;;;;2.75;0.90;;;;;;;17.94;72.13;100777.84;10491861;28;20052;-81
2022/07/06 00:34:53;;;;;;;1.38;0.90;;;;;;;17.97;72.16;100773.59;10467280;28;20060;-82
2022/07/06 00:39:55;;;;;;;1.45;0.90;;;;;;;17.93;72.70;100767.06;10455162;28;20040;-83
2022/07/06 00:44:57;;;;;;;1.70;0.90;;;;;;;17.90;72.31;100768.53;10489074;28;20060;-83
2022/07/06 00:50:18;;;;;;;2.35;1.27;;;;;;;17.95;72.36;100762.00;10467913;28;20044;-83
2022/07/06 00:55:22;;;;;;;2.75;1.25;;;;;;;17.96;71.76;100760.84;10475408;28;20051;-83
2022/07/06 01:00:26;;;;;;;1.70;0.90;;;;;;;17.93;71.67;100772.63;10489942;28;20032;-84
2022/07/06 01:05:29;;;;;;;1.83;0.90;;;;;;;17.94;72.18;100758.41;10442798;28;20522;-83
2022/07/06 01:10:31;;;;;;;1.20;0.60;;;;;;;18.00;71.99;100768.19;10486554;28;20048;-83
2022/07/06 01:15:34;;;;;;;4.00;0.90;;;;;;;17.99;72.14;100762.97;10472370;28;20088;-83
2022/07/06 01:20:36;;;;;;;1.80;0.95;;;;;;;18.00;72.36;100762.63;10448944;28;20041;-83
2022/07/06 01:25:38;;;;;;;2.70;1.10;;;;;;;17.99;72.62;100771.31;10435679;28;20060;-83
2022/07/06 01:30:41;;;;;;;1.67;1.17;;;;;;;17.92;73.03;100771.81;10455057;28;20060;-84
2022/07/06 01:35:44;;;;;;;3.65;1.38;;;;;;;17.90;73.39;100776.88;10489075;28;20051;-84
2022/07/06 01:40:46;;;;;;;6.10;1.20;;;;;;;17.88;73.90;100779.16;10489285;28;20507;-81
2022/07/06 01:45:49;;;;;;;3.50;1.13;;;;;;;18.01;74.24;100769.00;10484370;28;20503;-84
2022/07/06 01:50:51;;;;;;;0.90;0.73;;;;;;;18.08;74.14;100772.13;10455176;28;20041;-83
2022/07/06 01:55:54;;;;;;;1.27;1.08;;;;;;;18.09;74.34;100768.22;10443464;28;20056;-81
2022/07/06 02:00:57;;;;;;;1.17;0.90;;;;;;;18.05;73.89;100772.78;10459362;28;20044;-81
2022/07/06 02:06:00;;;;;;;1.10;0.80;;;;;;;17.96;74.23;100767.22;10470453;28;20044;-83
2022/07/06 02:11:03;;;;;;;0.85;0.85;;;;;;;18.04;73.85;100763.63;10487616;28;20041;-80
2022/07/06 02:16:07;;;;;;;2.78;1.10;;;;;;;18.20;74.05;100772.25;10454196;28;20048;-80
2022/07/06 02:21:09;;;;;;;3.35;1.10;;;;;;;18.24;74.00;100789.91;10453181;28;20040;-80
2022/07/06 02:26:12;;;;;;;1.13;1.02;;;;;;;18.09;74.14;100787.66;10486233;28;20052;-80
2022/07/06 02:31:15;;;;;;;2.50;1.13;;;;;;;17.94;74.35;100785.34;10485031;28;20041;-80
2022/07/06 02:36:19;;;;;;;3.22;1.10;;;;;;;17.96;75.08;100794.19;10453029;28;20124;-81
2022/07/06 02:41:21;;;;;;;1.13;1.02;;;;;;;17.99;75.59;100790.75;10485385;28;20049;-81
2022/07/06 02:46:24;;;;;;;2.67;1.10;;;;;;;18.06;75.04;100796.63;10468915;28;20052;-81
2022/07/06 02:51:27;;;;;;;1.30;1.20;;;;;;;18.09;74.98;100793.19;10454795;28;20044;-81
2022/07/06 02:56:29;;;;;;;1.77;1.10;;;;;;;18.09;74.77;100804.31;10467869;28;20037;-82
2022/07/06 03:01:33;;;;;;;2.45;0.98;;;;;;;18.41;74.96;100799.38;10467518;28;20029;-81
2022/07/06 03:06:36;;;;;;;2.00;1.20;;;;;;;18.86;73.00;100795.00;10484252;28;20048;-83
2022/07/06 03:11:39;;;;;;;2.78;1.30;;;;;;;19.38;71.33;100794.75;10452338;28;20539;-84
2022/07/06 03:16:42;;;;;;;2.65;1.23;;;;;;;19.84;68.91;100799.38;10468430;28;20557;-84
2022/07/06 03:21:44;;;;;;;1.45;1.00;;;;;;;20.11;67.07;100800.78;10481147;28;20040;-83
2022/07/06 03:26:47;;;;;;;2.80;1.10;;;;;;;19.94;67.24;100802.88;10457511;28;20415;-83
2022/07/06 03:31:50;;;;;;;2.08;1.40;;;;;;;19.99;66.64;100797.94;10455469;28;20419;-83
2022/07/06 03:36:53;;;;;;;2.15;1.30;;;;;;;20.33;66.12;100793.22;10473138;28;20045;-83
2022/07/06 03:41:55;;;;;;;1.85;1.20;;;;;;;20.82;64.87;100799.72;10428189;28;20041;-83
2022/07/06 03:46:58;;;;;;;3.05;1.10;;;;;;;21.21;62.86;100794.66;10475902;28;20043;-83
2022/07/06 03:52:02;;;;;;;1.20;0.95;;;;;;;21.40;61.09;100791.31;10462320;28;20048;-83
2022/07/06 03:57:13;;;;;;;2.20;1.25;;;;;;;21.57;61.04;100803.03;10467546;28;20044;-84
2022/07/06 04:02:16;;;;;;;1.25;0.95;;;;;;;21.57;60.13;100805.03;10460329;28;20577;-85
2022/07/06 04:07:19;;;;;;;1.30;1.20;;;;;;;21.26;61.13;100800.84;10468429;28;20269;-83
2022/07/06 04:12:23;;;;;;;1.23;1.13;;;;;;;20.90;61.84;100803.59;10465206;28;20037;-83
2022/07/06 04:22:47;;;;;;;2.28;1.20;;;;;;;20.75;61.77;100821.81;10459231;28;20045;-82
2022/07/06 04:27:50;;;;;;;2.92;1.20;;;;;;;20.75;61.73;100813.44;10449238;28;20526;-82
2022/07/06 04:32:55;;;;;;;2.85;1.60;;;;;;;20.60;62.46;100820.50;10463478;28;20041;-83
2022/07/06 04:38:00;;;;;;;3.25;1.23;;;;;;;21.04;61.92;100812.44;10458414;28;20451;-84
2022/07/06 04:43:02;;;;;;;1.90;1.20;;;;;;;21.63;59.68;100826.75;10442971;28;20053;-79
2022/07/06 04:48:08;;;;;;;4.85;1.77;;;;;;;21.80;59.68;100819.28;10450531;28;20051;-79
2022/07/06 04:53:11;;;;;;;1.85;1.38;;;;;;;21.54;58.95;100819.69;10465312;28;20049;-80
2022/07/06 04:58:14;;;;;;;3.42;1.48;;;;;;;22.06;58.42;100825.31;10450119;28;20064;-80
2022/07/06 05:03:17;;;;;;;2.30;1.10;;;;;;;22.47;57.46;100820.47;10438172;28;20040;-80
2022/07/06 05:08:20;;;;;;;1.73;1.30;;;;;;;22.72;56.36;100815.53;10468039;28;20061;-80
2022/07/06 05:13:22;;;;;;;2.05;1.35;;;;;;;22.88;56.44;100816.41;10446607;28;20160;-80
2022/07/06 05:18:25;;;;;;;5.22;1.75;;;;;;;23.64;54.17;100814.31;10454834;28;20037;-80
2022/07/06 05:23:28;;;;;;;3.42;1.23;;;;;;;23.66;53.37;100815.56;10471815;28;20037;-80
2022/07/06 05:28:31;;;;;;;2.53;1.23;;;;;;;23.39;53.47;100822.88;10456867;28;20492;-79
2022/07/06 05:33:34;;;;;;;1.50;1.05;;;;;;;22.99;53.90;100820.31;10479330;28;20519;-79
2022/07/06 05:38:38;;;;;;;3.72;1.40;;;;;;;22.59;54.28;100828.00;10453235;28;20037;-79
2022/07/06 05:43:41;;;;;;;2.63;1.00;;;;;;;22.77;53.79;100818.09;10469829;28;20061;-79
2022/07/06 05:54:04;;;;;;;3.25;1.00;;;;;;;23.21;51.90;100829.22;10451301;28;20039;-79
2022/07/06 05:59:07;;;;;;;0.90;0.80;;;;;;;23.94;50.44;100825.75;10445757;28;20049;-79
2022/07/06 06:04:11;;;;;;;2.25;0.80;;;;;;;24.54;47.92;100829.84;10455076;28;20041;-79
2022/07/06 06:09:14;;;;;;;2.65;0.77;;;;;;;24.69;45.85;100838.56;10445261;28;20052;-79
2022/07/06 06:14:16;;;;;;;3.47;0.93;;;;;;;24.89;45.53;100831.72;10471644;28;20037;-79
2022/07/06 06:19:19;;;;;;;2.60;0.80;;;;;;;25.00;45.89;100820.72;10455997;28;20043;-78
2022/07/06 06:24:23;;;;;;;1.70;0.70;;;;;;;25.58;45.47;100818.44;10446206;28;20041;-79
2022/07/06 06:29:26;;;;;;;1.55;0.70;;;;;;;25.98;43.74;100798.13;10480878;28;20044;-79
2022/07/06 06:34:28;;;;;;;1.80;0.70;;;;;;;26.15;43.55;100794.72;10485357;28;20522;-79
2022/07/06 06:39:30;;;;;;;1.88;0.82;;;;;;;26.41;41.74;100807.13;10486111;28;20518;-79
2022/07/06 06:44:33;;;;;;;1.80;0.70;;;;;;;26.34;42.14;100807.81;10466320;28;20041;-79
2022/07/06 06:49:35;;;;;;;3.22;0.90;;;;;;;26.15;42.44;100802.34;10481218;28;20056;-79
2022/07/06 06:54:38;;;;;;;2.28;0.80;;;;;;;26.21;42.71;100808.44;10438848;28;20041;-79
2022/07/06 06:59:40;;;;;;;1.58;0.90;;;;;;;26.22;42.90;100799.66;10477303;28;20049;-79
2022/07/06 07:04:42;;;;;;;1.13;1.02;;;;;;;25.71;43.30;100803.00;10463519;28;20049;-79
2022/07/06 07:09:45;;;;;;;2.15;0.90;;;;;;;25.34;44.28;100808.44;10463262;28;20044;-79
2022/07/06 07:14:47;;;;;;;1.48;1.00;;;;;;;25.92;43.45;100807.28;10480124;28;20053;-79
2022/07/06 07:19:49;;;;;;;1.33;0.98;;;;;;;26.01;43.22;100814.22;10462588;28;20057;-79
2022/07/06 07:24:52;;;;;;;1.33;0.90;;;;;;;26.08;42.74;100803.09;10444012;28;20049;-80
2022/07/06 07:29:54;;;;;;;1.10;0.75;;;;;;;26.35;41.46;100805.84;10481577;28;20048;-80
2022/07/06 07:34:57;;;;;;;1.80;0.73;;;;;;;26.40;41.58;100799.88;10463542;28;20096;-80
2022/07/06 07:39:59;;;;;;;1.10;0.50;;;;;;;26.99;39.81;100795.22;10471985;28;20046;-80
2022/07/06 07:45:02;;;;;;;0.70;0.70;;;;;;;27.27;38.47;100801.13;10474884;28;20045;-80
2022/07/06 07:50:05;;;;;;;1.92;0.82;;;;;;;27.41;37.34;100810.88;10492821;28;20033;-79
2022/07/06 07:55:08;;;;;;;1.02;0.70;;;;;;;27.65;36.54;100809.47;10484978;28;20049;-81
2022/07/06 08:00:11;;;;;;;2.38;0.80;;;;;;;27.68;36.70;100820.78;10465635;28;20041;-79
2022/07/06 08:05:15;;;;;;;2.90;0.80;;;;;;;27.49;36.26;100829.47;10471962;28;20349;-81
2022/07/06 08:10:18;;;;;;;1.92;0.70;;;;;;;27.49;36.64;100832.28;10487003;28;20068;-81
2022/07/06 08:15:20;;;;;;;2.63;0.70;;;;;;;26.80;36.76;100827.25;10491686;28;20041;-85
2022/07/06 08:20:23;;;;;;;2.47;0.70;;;;;;;26.39;38.16;100827.22;10455812;28;20041;-81
2022/07/06 08:25:25;;;;;;;0.70;0.60;;;;;;;26.44;36.88;100826.06;10481471;28;20041;-84
2022/07/06 08:30:28;;;;;;;1.27;0.60;;;;;;;26.56;37.58;100817.34;10487922;28;20049;-83
2022/07/06 08:35:31;;;;;;;2.38;0.50;;;;;;;26.56;37.08;100814.53;10480957;28;20051;-83
2022/07/06 08:40:34;;;;;;;1.10;0.68;;;;;;;26.46;37.94;100820.84;10468962;28;20071;-84
2022/07/06 08:45:37;;;;;;;1.48;0.80;;;;;;;26.76;37.13;100811.53;10475336;28;20043;-80
2022/07/06 08:50:39;;;;;;;1.00;0.68;;;;;;;26.37;36.69;100820.31;10450425;28;20049;-79
2022/07/06 08:55:43;;;;;;;2.65;0.68;;;;;;;26.28;36.68;100808.56;10486283;28;20123;-79
2022/07/06 09:00:46;;;;;;;2.08;0.70;;;;;;;26.06;36.90;100808.28;10459395;28;20041;-87
2022/07/06 09:05:49;;;;;;;1.13;0.73;;;;;;;25.51;39.10;100795.81;10474834;28;20033;-95
2022/07/06 09:10:51;;;;;;;3.42;1.20;;;;;;;25.49;38.85;100793.41;10455688;28;20049;-87
2022/07/06 09:15:53;;;;;;;2.20;0.60;;;;;;;25.56;37.96;100784.28;10469967;28;20049;-82
2022/07/06 09:20:56;;;;;;;1.77;0.90;;;;;;;25.59;38.80;100785.50;10461373;28;20585;-80
2022/07/06 09:26:01;;;;;;;1.88;0.90;;;;;;;25.89;38.49;100772.31;10469675;28;20049;-78
2022/07/06 09:31:07;;;;;;;4.50;1.20;;;;;;;25.75;39.04;100758.06;10479015;28;20033;-78
2022/07/06 09:36:09;;;;;;;4.15;0.80;;;;;;;25.37;39.15;100756.31;10447886;28;20038;-78
2022/07/06 09:41:12;;;;;;;0.80;0.68;;;;;;;25.15;38.77;100743.91;10448178;28;20076;-78
2022/07/06 09:46:14;;;;;;;4.13;1.40;;;;;;;24.96;39.26;100750.41;10449302;28;20399;-80
2022/07/06 09:51:20;;;;;;;2.50;0.90;;;;;;;24.77;39.67;100751.28;10445882;28;20045;-78
2022/07/06 09:56:37;;;;;;;1.00;0.90;;;;;;;24.57;39.77;100752.53;10429684;28;20428;-78
2022/07/06 10:01:41;;;;;;;2.17;1.10;;;;;;;24.24;40.84;100751.09;10446770;28;20046;-78
2022/07/06 10:06:43;;;;;;;1.52;1.00;;;;;;;24.02;39.40;100737.84;10450170;28;20049;-80
2022/07/06 10:11:52;;;;;;;2.60;1.10;;;;;;;23.90;39.85;100736.00;10429552;28;20053;-78
2022/07/06 10:16:57;;;;;;;3.33;1.13;;;;;;;23.83;40.96;100735.88;10446495;28;20038;-78
2022/07/06 10:22:01;;;;;;;1.60;0.98;;;;;;;23.85;40.76;100741.09;10432235;28;20053;-80
2022/07/06 10:27:04;;;;;;;4.20;0.90;;;;;;;23.93;41.39;100728.84;10428851;28;20065;-78
2022/07/06 10:32:07;;;;;;;1.25;0.90;;;;;;;23.83;40.84;100718.25;10446375;28;20045;-78
2022/07/06 10:37:25;;;;;;;2.42;1.23;;;;;;;23.83;42.12;100721.03;10428335;28;20033;-80
2022/07/06 10:42:49;;;;;;;1.60;1.00;;;;;;;23.69;40.81;100719.56;10448534;28;20052;-80
2022/07/06 10:48:10;;;;;;;2.65;0.95;;;;;;;23.73;40.63;100716.81;10445418;28;20037;-80
2022/07/06 10:53:14;;;;;;;1.95;0.90;;;;;;;23.68;41.29;100720.75;10445327;28;20041;-79
2022/07/06 10:58:35;;;;;;;2.20;0.95;;;;;;;23.60;42.11;100715.34;10432965;28;20037;-80
2022/07/06 11:03:46;;;;;;;2.08;1.15;;;;;;;23.51;42.28;100718.34;10485773;28;20037;-78
2022/07/06 11:09:05;;;;;;;1.77;0.90;;;;;;;23.46;40.78;100707.44;10452065;28;20047;-80
2022/07/06 11:14:15;;;;;;;0.80;0.80;;;;;;;23.29;41.76;100716.25;10480779;28;20029;-79
2022/07/06 11:19:23;;;;;;;2.83;1.10;;;;;;;23.34;42.97;100721.56;10458848;28;20507;-80
2022/07/06 11:24:27;;;;;;;1.47;0.97;;;;;;;23.48;42.27;100713.47;10484772;28;20147;-80
2022/07/06 11:29:30;;;;;;;0.93;0.82;;;;;;;23.51;42.02;100709.94;10485466;28;20052;-80
2022/07/06 11:34:34;;;;;;;1.13;0.90;;;;;;;23.57;42.16;100716.06;10438032;28;20509;-80
2022/07/06 11:39:40;;;;;;;2.03;1.00;;;;;;;23.65;41.95;100718.69;10444004;28;20425;-80
2022/07/06 11:44:43;;;;;;;2.60;0.93;;;;;;;23.69;42.86;100724.34;10430134;28;20045;-80
2022/07/06 11:49:49;;;;;;;2.08;1.00;;;;;;;23.56;43.05;100720.03;10447307;28;20053;-80
2022/07/06 11:54:57;;;;;;;1.50;0.90;;;;;;;23.68;41.83;100715.13;10444844;28;20037;-80
2022/07/06 12:00:00;;;;;;;1.38;0.90;;;;;;;23.68;42.64;100709.53;10485309;28;20071;-80
2022/07/06 12:05:02;;;;;;;3.35;0.80;;;;;;;23.85;42.29;100716.69;10467710;28;20052;-80
2022/07/06 12:10:05;;;;;;;2.33;0.85;;;;;;;24.04;41.67;100715.84;10458539;28;20144;-80
2022/07/06 12:15:08;;;;;;;1.70;0.75;;;;;;;23.95;40.96;100715.25;10468252;28;20051;-80
2022/07/06 12:20:10;;;;;;;1.00;0.77;;;;;;;24.00;41.28;100715.00;10493026;28;20041;-80
2022/07/06 12:25:31;;;;;;;4.97;0.85;;;;;;;23.95;41.80;100693.69;10492677;28;20507;-80
2022/07/06 12:30:45;;;;;;;2.05;1.02;;;;;;;24.02;41.75;100699.41;10491832;28;20049;-80
2022/07/06 12:35:47;;;;;;;3.28;1.00;;;;;;;24.05;41.54;100695.88;10491988;28;20523;-80
2022/07/06 12:40:50;;;;;;;2.25;0.90;;;;;;;24.07;41.42;100692.69;10491596;28;20144;-81
2022/07/06 12:45:52;;;;;;;0.95;0.70;;;;;;;24.03;42.29;100698.22;10492193;28;20044;-80
2022/07/06 12:50:56;;;;;;;1.15;0.88;;;;;;;23.97;41.63;100698.91;10491225;28;20051;-80
2022/07/06 12:56:09;;;;;;;1.05;0.80;;;;;;;24.03;41.26;100706.63;10459341;28;20050;-80
2022/07/06 13:01:14;;;;;;;0.70;0.70;;;;;;;23.83;41.71;100693.03;10435687;28;20704;-80
2022/07/06 13:06:29;;;;;;;1.58;0.68;;;;;;;23.72;41.85;100696.41;10489671;28;20411;-80
2022/07/06 13:11:33;;;;;;;2.40;1.08;;;;;;;23.79;42.78;100680.94;10490722;28;20043;-80
2022/07/06 13:16:35;;;;;;;2.55;0.88;;;;;;;23.79;43.29;100667.72;10490501;28;20044;-80
2022/07/06 13:21:38;;;;;;;1.73;0.70;;;;;;;23.77;42.25;100670.88;10472568;28;20057;-80
2022/07/06 13:26:40;;;;;;;0.90;0.80;;;;;;;23.72;42.48;100673.19;10471401;28;20048;-78
2022/07/06 13:31:43;;;;;;;2.20;1.20;;;;;;;23.74;41.93;100671.63;10483896;28;20041;-80
2022/07/06 13:36:45;;;;;;;2.47;1.63;;;;;;;23.74;42.25;100665.22;10457858;28;20045;-80
2022/07/06 13:41:48;;;;;;;2.25;1.23;;;;;;;23.75;42.04;100656.44;10466254;28;20079;-80
2022/07/06 13:46:50;;;;;;;3.53;1.20;;;;;;;23.72;42.96;100664.78;10487314;28;20539;-81
2022/07/06 13:51:54;;;;;;;1.27;1.17;;;;;;;23.66;43.02;100669.06;10470785;28;20041;-84
2022/07/06 13:56:57;;;;;;;0.70;0.70;;;;;;;23.64;42.74;100663.03;10446874;28;20099;-80
2022/07/06 14:01:59;;;;;;;3.53;0.80;;;;;;;23.62;43.92;100663.41;10482832;28;20033;-82
2022/07/06 14:07:02;;;;;;;2.63;0.73;;;;;;;23.56;43.49;100662.00;10488603;28;20037;-84
2022/07/06 14:12:05;;;;;;;1.17;1.00;;;;;;;23.52;44.00;100654.72;10491309;28;20037;-78
2022/07/06 14:17:07;;;;;;;3.80;0.88;;;;;;;23.56;43.97;100659.22;10475393;28;20052;-76
2022/07/06 14:22:09;;;;;;;1.52;0.80;;;;;;;23.66;43.99;100653.06;10479638;28;20048;-80
2022/07/06 14:27:11;;;;;;;2.58;1.25;;;;;;;23.72;43.88;100650.75;10486478;28;20048;-78
2022/07/06 14:32:14;;;;;;;3.70;0.90;;;;;;;23.66;43.35;100635.44;10469735;28;20052;-86
2022/07/06 14:37:16;;;;;;;1.85;0.70;;;;;;;23.62;42.76;100628.97;10487501;28;20044;-83
2022/07/06 14:42:19;;;;;;;2.00;0.75;;;;;;;23.58;43.85;100628.88;10487634;28;20455;-85
2022/07/06 14:47:21;;;;;;;3.20;1.88;;;;;;;23.53;43.95;100626.34;10483582;28;20037;-80
2022/07/06 14:52:23;;;;;;;1.23;1.00;;;;;;;23.38;43.77;100616.03;10483427;28;20520;-81
2022/07/06 14:57:25;;;;;;;2.40;1.02;;;;;;;23.20;44.38;100618.44;10467401;28;20041;-79
2022/07/06 15:02:28;;;;;;;2.13;0.70;;;;;;;23.02;44.50;100615.25;10461065;28;20414;-81
2022/07/06 15:07:30;;;;;;;1.88;1.10;;;;;;;22.87;44.96;100604.91;10460089;28;20041;-81
2022/07/06 15:12:33;;;;;;;1.90;1.20;;;;;;;22.70;45.22;100605.28;10480327;28;20068;-84
2022/07/06 15:17:36;;;;;;;2.15;1.20;;;;;;;22.65;45.64;100591.59;10484409;28;20060;-90
2022/07/06 15:22:39;;;;;;;2.72;1.48;;;;;;;22.58;45.79;100594.22;10479633;28;20045;-82
2022/07/06 15:27:41;;;;;;;3.42;1.45;;;;;;;22.66;46.46;100599.63;10458777;28;20065;-75
2022/07/06 15:32:43;;;;;;;4.22;1.50;;;;;;;22.66;46.90;100598.81;10484898;28;20075;-75
2022/07/06 15:37:46;;;;;;;2.20;1.33;;;;;;;22.54;46.34;100596.91;10471026;28;20044;-76
2022/07/06 15:42:48;;;;;;;3.20;1.00;;;;;;;22.54;47.17;100591.31;10475642;28;20507;-77
2022/07/06 15:47:51;;;;;;;2.97;1.10;;;;;;;22.42;48.03;100589.47;10485072;28;20048;-77
2022/07/06 15:52:53;;;;;;;2.15;1.10;;;;;;;22.35;47.78;100600.47;10490107;28;20041;-80
2022/07/06 15:57:56;;;;;;;3.55;0.93;;;;;;;22.35;47.68;100589.28;10469962;28;20047;-84
2022/07/06 16:02:58;;;;;;;0.80;0.70;;;;;;;22.29;47.04;100587.94;10475290;28;20504;-83
2022/07/06 16:08:00;;;;;;;0.73;0.68;;;;;;;22.12;46.33;100591.09;10468299;28;20056;-79
2022/07/06 16:13:03;;;;;;;2.13;0.80;;;;;;;22.06;46.64;100601.75;10468155;28;20057;-74
2022/07/06 16:18:06;;;;;;;1.10;0.93;;;;;;;22.10;47.78;100591.47;10471857;28;20056;-74
2022/07/06 16:23:08;;;;;;;1.10;0.88;;;;;;;22.14;47.89;100589.56;10491915;28;20443;-75
2022/07/06 16:28:10;;;;;;;4.10;0.93;;;;;;;22.21;48.08;100588.91;10456613;28;20063;-78
2022/07/06 16:33:14;;;;;;;0.65;0.60;;;;;;;22.15;48.15;100579.19;10473106;28;20037;-79
2022/07/06 16:38:17;;;;;;;4.68;0.85;;;;;;;22.05;49.15;100585.34;10471307;28;21872;-76
2022/07/06 16:43:20;;;;;;;3.45;1.00;;;;;;;21.92;49.99;100593.75;10490380;28;20052;-78
2022/07/06 16:48:22;;;;;;;2.35;0.98;;;;;;;21.51;54.54;100600.59;10485787;28;20041;-74
2022/07/06 16:53:24;;;;;;;1.95;1.05;;;;;;;21.10;56.38;100600.97;10477902;28;20044;-77
2022/07/06 16:58:27;;;;;;;1.98;1.08;;;;;;;20.72;58.30;100597.44;10447095;28;20048;-79
2022/07/06 17:03:29;;;;;;;1.80;0.90;;;;;;;20.54;58.81;100596.06;10484689;28;20052;-84
2022/07/06 17:08:32;;;;;;;3.17;2.08;;;;;;;20.40;59.63;100595.56;10446443;28;20048;-83
2022/07/06 17:13:34;;;;;;;3.25;1.27;;;;;;;20.21;59.89;100598.94;10457482;28;20538;-83
2022/07/06 17:18:37;;;;;;;3.40;1.33;;;;;;;20.18;60.80;100594.88;10460019;28;20029;-84
2022/07/06 17:23:39;;;;;;;1.30;0.82;;;;;;;20.23;61.02;100590.22;10484730;28;20067;-84
2022/07/06 17:28:41;;;;;;;4.28;1.00;;;;;;;20.19;60.86;100578.97;10466754;28;20052;-83
2022/07/06 17:33:44;;;;;;;5.00;2.75;;;;;;;20.19;60.95;100590.09;10461096;28;20041;-84
2022/07/06 17:38:46;;;;;;;1.58;1.20;;;;;;;20.24;61.05;100586.25;10466871;28;20052;-84
2022/07/06 17:43:48;;;;;;;0.82;0.60;;;;;;;20.16;61.01;100582.44;10465718;28;20048;-84
2022/07/06 17:48:54;;;;;;;1.38;1.00;;;;;;;20.10;61.71;100581.03;10461727;28;20053;-84
2022/07/06 17:53:57;;;;;;;2.60;0.70;;;;;;;20.02;61.70;100587.53;10468966;28;20044;-84
2022/07/06 17:58:59;;;;;;;3.05;1.42;;;;;;;20.02;61.98;100582.78;10451981;28;20033;-85
2022/07/06 18:04:01;;;;;;;2.58;0.93;;;;;;;20.07;61.84;100584.50;10462781;28;20504;-84
2022/07/06 18:09:05;;;;;;;0.70;0.60;;;;;;;20.08;62.03;100578.59;10483815;28;20036;-84
2022/07/06 18:14:08;;;;;;;3.03;0.90;;;;;;;20.06;62.23;100580.09;10456994;28;20029;-82
2022/07/06 18:19:11;;;;;;;4.82;1.05;;;;;;;20.02;62.09;100579.19;10484083;28;20037;-79
2022/07/06 18:24:19;;;;;;;1.42;0.90;;;;;;;20.02;62.20;100571.63;10456173;28;20045;-79
2022/07/06 18:29:21;;;;;;;2.17;1.00;;;;;;;;;;10454581;28;20052;-77
2022/07/06 18:34:23;;;;;;;1.98;1.10;;;;;;;19.99;62.40;100569.53;10462649;28;20044;-76
2022/07/06 18:39:26;;;;;;;2.28;1.17;;;;;;;19.95;62.87;100574.16;10462034;28;20045;-80
2022/07/06 18:44:29;;;;;;;1.67;1.35;;;;;;;19.98;62.91;100576.28;10465822;28;20045;-76
2022/07/06 18:49:32;;;;;;;2.65;1.10;;;;;;;20.02;62.94;100566.06;10462045;28;20052;-76
2022/07/06 18:54:35;;;;;;;1.17;1.00;;;;;;;20.05;62.42;100567.34;10486358;28;20047;-76
2022/07/06 18:59:37;;;;;;;6.03;3.80;;;;;;;19.99;63.04;100555.63;10486356;28;20051;-76
2022/07/06 19:04:40;;;;;;;2.63;1.48;;;;;;;19.97;62.94;100565.47;10482802;28;20045;-76
2022/07/06 19:09:43;;;;;;;3.28;1.90;;;;;;;19.96;63.10;100564.66;10478662;28;20045;-75
2022/07/06 19:14:45;;;;;;;4.55;1.30;;;;;;;19.96;62.93;100556.31;10464269;28;20647;-75
2022/07/06 19:19:48;;;;;;;4.68;2.53;;;;;;;19.96;62.95;100555.47;10480156;28;20040;-76
2022/07/06 19:24:50;;;;;;;4.68;1.25;;;;;;;19.98;63.21;100551.22;10484567;28;20534;-75
2022/07/06 19:29:53;;;;;;;5.90;2.35;;;;;;;20.02;62.97;100551.31;10485262;28;20044;-75
2022/07/06 19:34:56;;;;;;;3.67;1.95;;;;;;;19.95;62.79;100549.09;10464098;28;20033;-75
2022/07/06 19:39:59;;;;;;;3.03;1.30;;;;;;;19.99;62.77;100547.25;10442007;28;20061;-77
2022/07/06 19:45:01;;;;;;;3.17;1.52;;;;;;;;;;10444535;28;20436;-83
2022/07/06 19:50:04;;;;;;;3.45;1.60;;;;;;;19.91;62.42;100550.94;10475424;28;20033;-81
2022/07/06 19:55:07;;;;;;;3.67;1.60;;;;;;;19.95;62.64;100549.09;10426897;28;20060;-84
2022/07/06 20:00:10;;;;;;;1.58;1.40;;;;;;;19.95;62.24;100543.53;10458676;28;20049;-85
2022/07/06 20:05:13;;;;;;;2.97;1.40;;;;;;;19.87;61.73;100536.09;10463515;28;20048;-84
2022/07/06 20:10:15;;;;;;;3.35;1.20;;;;;;;19.83;60.87;100521.25;10437676;28;20385;-76
2022/07/06 20:15:19;;;;;;;1.20;1.02;;;;;;;19.83;61.17;100515.69;10475191;28;20059;-77
2022/07/06 20:20:21;;;;;;;0.88;0.88;;;;;;;19.79;60.89;100520.31;10483047;28;20076;-76
2022/07/06 20:25:24;;;;;;;1.23;1.00;;;;;;;19.71;61.45;100522.03;10470441;28;20054;-76
2022/07/06 20:30:26;;;;;;;2.47;1.38;;;;;;;19.69;60.51;100515.19;10483950;28;20053;-74
2022/07/06 20:35:29;;;;;;;1.40;1.05;;;;;;;19.62;59.71;100514.97;10471442;28;20052;-73
2022/07/06 20:40:31;;;;;;;1.40;0.90;;;;;;;19.57;59.29;100513.19;10469963;28;20050;-72
2022/07/06 20:45:33;;;;;;;2.53;0.90;;;;;;;19.63;58.61;100522.97;10443344;28;20045;-73
2022/07/06 20:50:36;;;;;;;3.55;1.15;;;;;;;19.63;58.56;100522.97;10473235;28;20407;-75
2022/07/06 20:55:39;;;;;;;2.50;0.90;;;;;;;19.58;58.30;100515.63;10456394;28;20041;-74
2022/07/06 21:00:42;;;;;;;2.38;1.50;;;;;;;19.58;58.72;100504.50;10486735;28;20041;-74
2022/07/06 21:05:44;;;;;;;2.40;1.10;;;;;;;19.55;59.03;100499.63;10473982;28;20041;-72
2022/07/06 21:10:46;;;;;;;2.13;1.00;;;;;;;19.48;59.28;100504.91;10473357;28;20053;-73
2022/07/06 21:15:49;;;;;;;3.78;1.00;;;;;;;19.47;60.39;100505.25;10461038;28;20051;-75
2022/07/06 21:20:51;;;;;;;1.17;0.98;;;;;;;19.35;60.19;100503.25;10490339;28;20543;-74
2022/07/06 21:25:53;;;;;;;1.73;0.70;;;;;;;19.32;60.95;100503.94;10490467;28;20048;-73
2022/07/06 21:30:55;;;;;;;1.63;0.90;;;;;;;19.28;61.26;100508.56;10489063;28;20049;-74
2022/07/06 21:35:58;;;;;;;0.73;0.73;;;;;;;19.19;61.26;100493.94;10489590;28;20073;-73
2022/07/06 21:41:01;;;;;;;1.85;0.80;;;;;;;19.20;61.48;100493.56;10451182;28;20049;-76
2022/07/06 21:46:03;;;;;;;1.20;0.98;;;;;;;19.16;61.12;100489.88;10470116;28;20037;-75
2022/07/06 21:51:05;;;;;;;1.08;0.95;;;;;;;19.10;61.90;100490.44;10465540;28;20049;-75
2022/07/06 21:56:08;;;;;;;1.98;1.00;;;;;;;19.06;61.95;100483.91;10446627;28;20037;-77
2022/07/06 22:01:10;;;;;;;1.83;1.10;;;;;;;18.95;62.09;100464.88;10472541;28;20044;-77
2022/07/06 22:06:13;;;;;;;2.20;1.20;;;;;;;18.98;62.50;100463.38;10485120;28;20415;-75
2022/07/06 22:11:15;;;;;;;6.13;1.63;;;;;;;19.00;62.83;100472.19;10489263;28;20397;-77
2022/07/06 22:16:18;;;;;;;2.22;1.60;;;;;;;18.96;62.89;100471.25;10488673;28;20431;-76
2022/07/06 22:21:20;;;;;;;4.32;1.58;;;;;;;18.93;63.05;100466.38;10488424;28;20049;-80
2022/07/06 22:26:24;;;;;;;2.45;1.50;;;;;;;18.93;63.00;100478.31;10436469;28;20033;-80
2022/07/06 22:31:27;;;;;;;2.13;1.50;;;;;;;18.85;63.30;100479.19;10477734;28;20053;-78
2022/07/06 22:36:31;;;;;;;2.63;1.33;;;;;;;18.84;62.86;100480.34;10486503;28;20048;-78
2022/07/06 22:41:34;;;;;;;1.50;1.40;;;;;;;18.87;64.09;100467.72;10481249;28;20049;-75
2022/07/06 22:46:37;;;;;;;2.45;1.35;;;;;;;18.86;64.13;100466.91;10486024;28;20037;-76
2022/07/06 22:51:39;;;;;;;3.08;0.93;;;;;;;18.79;64.37;100479.75;10471861;28;20552;-76
2022/07/06 22:56:46;;;;;;;2.25;1.25;;;;;;;18.73;64.79;100467.19;10481881;28;20037;-75
2022/07/06 23:01:51;;;;;;;1.10;1.00;;;;;;;18.68;64.87;100463.47;10478792;28;20052;-76
2022/07/06 23:06:54;;;;;;;2.35;1.20;;;;;;;18.64;64.99;100454.19;10485954;28;20566;-78
2022/07/06 23:11:59;;;;;;;1.05;0.85;;;;;;;18.63;64.73;100457.31;10461112;28;20048;-79
2022/07/06 23:17:02;;;;;;;2.15;1.20;;;;;;;18.65;65.15;100443.88;10485832;28;20048;-78
2022/07/06 23:22:05;;;;;;;3.25;0.90;;;;;;;18.68;65.17;100434.88;10485167;28;20051;-75
2022/07/06 23:27:08;;;;;;;1.10;1.00;;;;;;;18.67;65.06;100438.78;10467307;28;20546;-75
2022/07/06 23:32:11;;;;;;;3.30;0.98;;;;;;;18.67;64.81;100442.38;10467926;28;20063;-74